CheckWX is a tool to help pilots better visualize weather data.  It is not intended as a substitute for an official pre-flight weather briefing.

10:33:26 UTC

KFMH METAR
Cape Cod Coast Guard Air Station Airport
Falmouth, Massachusetts, USA
Current

48 mins ago

KFMH 190945Z 23009G17KT 10SM OVC006 04/04 A2962
Observed
Jan-19 @ 09:45 UTC
Wind
  • 230° at 9 KTS
  • Gusting to 17 KTS
Visibility
10 SM
Flight Rules
IFR
Cloud Levels
  • Overcast at 600' AGL
Temperature
C / 39°F
Dewpoint
C / 39°F
Humidity
100%
Altimeter
29.62" Hg
Pressure
1003.02 hPa
Previous

2 hours ago

KFMH 190845Z 23009G17KT 10SM OVC006 04/04 A2962
Observed
Jan-19 @ 08:45 UTC
Wind
  • 230° at 9 KTS
  • Gusting to 17 KTS
Visibility
10 SM
Flight Rules
IFR
Cloud Levels
  • Overcast at 600' AGL
Temperature
C / 39°F
Dewpoint
C / 39°F
Humidity
100%
Altimeter
29.62" Hg
Pressure
1003.02 hPa
Previous

3 hours ago

KFMH 190745Z 23009KT 10SM OVC006 04/04 A2967
Observed
Jan-19 @ 07:45 UTC
Wind
  • 230° at 9 KTS
Visibility
10 SM
Flight Rules
IFR
Cloud Levels
  • Overcast at 600' AGL
Temperature
C / 39°F
Dewpoint
C / 39°F
Humidity
100%
Altimeter
29.67" Hg
Pressure
1004.72 hPa